Quick Links (Output Below):   Max & Min Temps   /   Climate Reports   /   Zone Forecasts
River Forecasts   /   Forestry Forecasts   /   Aviation Forecasts   /   Radars   /   Features

Terminal Aerodrome Forecast (El Dorado)

Pick a Site:
Arkadelphia | El Dorado | Fayetteville | Fort Smith | Harrison | Highfill | Hot Springs | Jonesboro
Little Rock | Monticello | Mountain Home | Pine Bluff | Texarkana
 Forecast 

KELD 011726Z 0118/0218 VRB03KT P6SM SKC
     FM021500 24005KT P6SM SCT250=


 Latest METARs (Observations) 
How to Decode METARs
18Z KELD 011753Z AUTO 10SM CLR 33/18 A3005 RMK AO2 SLP173 T03330183
         10333 20211 58000
         
17Z KELD 011653Z AUTO 27006KT 10SM CLR 32/19 A3006 RMK AO2 SLP175
         T03220194
         
16Z KELD 011553Z AUTO VRB04KT 10SM CLR 32/19 A3006 RMK AO2 SLP176
         T03170194
         
15Z KELD 011453Z AUTO 24005KT 10SM CLR 29/20 A3005 RMK AO2 SLP173
         T02940200 51013
         
14Z KELD 011353Z AUTO 22004KT 10SM CLR 27/20 A3005 RMK AO2 SLP173
         T02720200
         
13Z KELD 011253Z AUTO 24003KT 10SM CLR 24/21 A3004 RMK AO2 SLP169
         T02440206
         
12Z KELD 011153Z AUTO 00000KT 10SM CLR 21/20 A3002 RMK AO2 SLP160
         T02110200 10217 20194 53010
         
11Z KELD 011053Z AUTO 00000KT 10SM CLR 20/19 A3000 RMK AO2 SLP155
         T02000189
         
10Z KELD 010953Z AUTO 00000KT 10SM CLR 20/19 A3000 RMK AO2 SLP154
         T02000189
         
09Z KELD 010853Z AUTO 00000KT 10SM CLR 21/20 A2999 RMK AO2 SLP150
         T02060200 50006
         
***** Today's Observations (Above) *****


Back to Main Page
http://www.srh.noaa.gov/lzk/qfcst.php

USA.gov is the U.S. government's official web portal to all federal, state and local government web resources and services.